Time;durP1;ratioP1;P1;durP2;ratioP2;P2;SDS_P1;SDS_P2;PMS_P1;PMS_P2;Temp;Humidity;BMP_temperature;BMP_pressure;BME280_temperature;BME280_humidity;BME280_pressure;Samples;Min_cycle;Max_cycle;Signal;HPM_P1;HPM_P2
2021/11/10 00:00:18;;;;;;;13.3;8.749999;;;;;;;-0.49;60.84766;95945.39;;;;
2021/11/10 00:01:21;;;;;;;13.3;8.749999;;;;;;;-0.49;60.84766;95945.39;;;;
2021/11/10 00:02:22;;;;;;;13.3;8.749999;;;;;;;-0.49;60.84766;95945.39;;;;
2021/11/10 00:03:22;;;;;;;13.3;8.749999;;;;;;;-0.49;60.84766;95945.39;;;;
2021/11/10 00:04:23;;;;;;;13.3;8.749999;;;;;;;-0.49;60.84766;95945.39;;;;
2021/11/10 00:05:23;;;;;;;13.3;8.749999;;;;;;;-0.49;60.84766;95945.39;;;;
2021/11/10 00:06:24;;;;;;;13.3;8.749999;;;;;;;-0.49;60.84766;95945.39;;;;
2021/11/10 00:07:24;;;;;;;13.3;8.749999;;;;;;;-0.49;60.84766;95945.39;;;;
2021/11/10 00:08:25;;;;;;;13.3;8.749999;;;;;;;-0.49;60.84766;95945.39;;;;
2021/11/10 00:09:26;;;;;;;13.3;8.749999;;;;;;;-0.49;60.84766;95945.39;;;;
2021/11/10 00:10:26;;;;;;;13.3;8.749999;;;;;;;-0.49;60.84766;95945.39;;;;
2021/11/10 00:11:27;;;;;;;13.3;8.749999;;;;;;;-0.49;60.84766;95945.39;;;;
2021/11/10 00:12:27;;;;;;;13.3;8.749999;;;;;;;-0.49;60.84766;95945.39;;;;
2021/11/10 00:13:28;;;;;;;13.3;8.749999;;;;;;;-0.49;60.84766;95945.39;;;;
2021/11/10 00:14:28;;;;;;;13.3;8.749999;;;;;;;-0.49;60.84766;95945.39;;;;
2021/11/10 00:15:29;;;;;;;14.2;8.549999;;;;;;;-0.53;61.125;95948;;;;
2021/11/10 00:16:30;;;;;;;14.2;8.549999;;;;;;;-0.53;61.125;95948;;;;
2021/11/10 00:17:31;;;;;;;14.2;8.549999;;;;;;;-0.53;61.125;95948;;;;
2021/11/10 00:18:31;;;;;;;14.2;8.549999;;;;;;;-0.53;61.125;95948;;;;
2021/11/10 00:19:32;;;;;;;14.2;8.549999;;;;;;;-0.53;61.125;95948;;;;
2021/11/10 00:20:32;;;;;;;14.2;8.549999;;;;;;;-0.53;61.125;95948;;;;
2021/11/10 00:21:33;;;;;;;14.2;8.549999;;;;;;;-0.53;61.125;95948;;;;
2021/11/10 00:22:34;;;;;;;14.2;8.549999;;;;;;;-0.53;61.125;95948;;;;
2021/11/10 00:23:35;;;;;;;14.2;8.549999;;;;;;;-0.53;61.125;95948;;;;
2021/11/10 00:24:36;;;;;;;14.2;8.549999;;;;;;;-0.53;61.125;95948;;;;
2021/11/10 00:25:36;;;;;;;18.5;9.65;;;;;;;-0.51;61.23242;95946.51;;;;
2021/11/10 00:26:37;;;;;;;18.5;9.65;;;;;;;-0.51;61.23242;95946.51;;;;
2021/11/10 00:27:38;;;;;;;18.5;9.65;;;;;;;-0.51;61.23242;95946.51;;;;
2021/11/10 00:28:38;;;;;;;18.5;9.65;;;;;;;-0.51;61.23242;95946.51;;;;
2021/11/10 00:29:39;;;;;;;18.5;9.65;;;;;;;-0.51;61.23242;95946.51;;;;
2021/11/10 00:30:40;;;;;;;18.5;9.65;;;;;;;-0.51;61.23242;95946.51;;;;
2021/11/10 00:31:40;;;;;;;18.5;9.65;;;;;;;-0.51;61.23242;95946.51;;;;
2021/11/10 00:32:41;;;;;;;18.5;9.65;;;;;;;-0.51;61.23242;95946.51;;;;
2021/11/10 00:33:41;;;;;;;18.5;9.65;;;;;;;-0.51;61.23242;95946.51;;;;
2021/11/10 00:34:42;;;;;;;18.5;9.65;;;;;;;-0.51;61.23242;95946.51;;;;
2021/11/10 00:35:43;;;;;;;18.5;9.65;;;;;;;-0.51;61.23242;95946.51;;;;
2021/11/10 00:36:44;;;;;;;18.65;11.2;;;;;;;-0.54;61.34277;95920.22;;;;
2021/11/10 00:37:44;;;;;;;18.65;11.2;;;;;;;-0.54;61.34277;95920.22;;;;
2021/11/10 00:38:45;;;;;;;18.65;11.2;;;;;;;-0.54;61.34277;95920.22;;;;
2021/11/10 00:39:46;;;;;;;18.65;11.2;;;;;;;-0.54;61.34277;95920.22;;;;
2021/11/10 00:40:47;;;;;;;18.65;11.2;;;;;;;-0.54;61.34277;95920.22;;;;
2021/11/10 00:41:47;;;;;;;18.65;11.2;;;;;;;-0.54;61.34277;95920.22;;;;
2021/11/10 00:42:48;;;;;;;18.65;11.2;;;;;;;-0.54;61.34277;95920.22;;;;
2021/11/10 00:43:48;;;;;;;18.65;11.2;;;;;;;-0.54;61.34277;95920.22;;;;
2021/11/10 00:44:49;;;;;;;18.65;11.2;;;;;;;-0.54;61.34277;95920.22;;;;
2021/11/10 00:45:50;;;;;;;18.65;11.2;;;;;;;-0.54;61.34277;95920.22;;;;
2021/11/10 00:46:51;;;;;;;18.65;11.2;;;;;;;-0.54;61.34277;95920.22;;;;
2021/11/10 00:47:51;;;;;;;19.8;12.45;;;;;;;-0.58;61.52539;95928.22;;;;
2021/11/10 00:48:52;;;;;;;19.8;12.45;;;;;;;-0.58;61.52539;95928.22;;;;
2021/11/10 00:49:52;;;;;;;19.8;12.45;;;;;;;-0.58;61.52539;95928.22;;;;
2021/11/10 00:50:53;;;;;;;19.8;12.45;;;;;;;-0.58;61.52539;95928.22;;;;
2021/11/10 00:51:53;;;;;;;19.8;12.45;;;;;;;-0.58;61.52539;95928.22;;;;
2021/11/10 00:52:54;;;;;;;19.8;12.45;;;;;;;-0.58;61.52539;95928.22;;;;
2021/11/10 00:53:55;;;;;;;19.8;12.45;;;;;;;-0.58;61.52539;95928.22;;;;
2021/11/10 00:54:56;;;;;;;19.8;12.45;;;;;;;-0.58;61.52539;95928.22;;;;
2021/11/10 00:55:57;;;;;;;19.8;12.45;;;;;;;-0.58;61.52539;95928.22;;;;
2021/11/10 00:56:57;;;;;;;19.8;12.45;;;;;;;-0.58;61.52539;95928.22;;;;
2021/11/10 00:57:58;;;;;;;19.1;10.85;;;;;;;-0.56;61.6123;95921.8;;;;
2021/11/10 00:58:59;;;;;;;19.1;10.85;;;;;;;-0.56;61.6123;95921.8;;;;
2021/11/10 00:59:59;;;;;;;19.1;10.85;;;;;;;-0.56;61.6123;95921.8;;;;
2021/11/10 01:01:00;;;;;;;19.1;10.85;;;;;;;-0.56;61.6123;95921.8;;;;
2021/11/10 01:02:00;;;;;;;19.1;10.85;;;;;;;-0.56;61.6123;95921.8;;;;
2021/11/10 01:03:01;;;;;;;19.1;10.85;;;;;;;-0.56;61.6123;95921.8;;;;
2021/11/10 01:04:03;;;;;;;19.1;10.85;;;;;;;-0.56;61.6123;95921.8;;;;
2021/11/10 01:05:04;;;;;;;19.1;10.85;;;;;;;-0.56;61.6123;95921.8;;;;
2021/11/10 01:06:05;;;;;;;19.1;10.85;;;;;;;-0.56;61.6123;95921.8;;;;
2021/11/10 01:07:06;;;;;;;19.1;10.85;;;;;;;-0.56;61.6123;95921.8;;;;
2021/11/10 01:08:07;;;;;;;19.1;10.85;;;;;;;-0.56;61.6123;95921.8;;;;
2021/11/10 01:09:16;;;;;;;19.4;10.5;;;;;;;-0.49;61.68359;95912.3;;;;
2021/11/10 01:10:17;;;;;;;19.4;10.5;;;;;;;-0.49;61.68359;95912.3;;;;
2021/11/10 01:11:18;;;;;;;19.4;10.5;;;;;;;-0.49;61.68359;95912.3;;;;
2021/11/10 01:12:18;;;;;;;19.4;10.5;;;;;;;-0.49;61.68359;95912.3;;;;
2021/11/10 01:13:20;;;;;;;19.4;10.5;;;;;;;-0.49;61.68359;95912.3;;;;
2021/11/10 01:14:20;;;;;;;19.4;10.5;;;;;;;-0.49;61.68359;95912.3;;;;
2021/11/10 01:15:21;;;;;;;19.4;10.5;;;;;;;-0.49;61.68359;95912.3;;;;
2021/11/10 01:16:23;;;;;;;19.4;10.5;;;;;;;-0.49;61.68359;95912.3;;;;
2021/11/10 01:17:23;;;;;;;19.4;10.5;;;;;;;-0.49;61.68359;95912.3;;;;
2021/11/10 01:18:24;;;;;;;19.4;10.5;;;;;;;-0.49;61.68359;95912.3;;;;
2021/11/10 01:19:25;;;;;;;15.8;10.05;;;;;;;-0.56;61.83203;95900.58;;;;
2021/11/10 01:20:25;;;;;;;15.8;10.05;;;;;;;-0.56;61.83203;95900.58;;;;
2021/11/10 01:21:26;;;;;;;15.8;10.05;;;;;;;-0.56;61.83203;95900.58;;;;
2021/11/10 01:22:26;;;;;;;15.8;10.05;;;;;;;-0.56;61.83203;95900.58;;;;
2021/11/10 01:23:28;;;;;;;15.8;10.05;;;;;;;-0.56;61.83203;95900.58;;;;
2021/11/10 01:24:28;;;;;;;15.8;10.05;;;;;;;-0.56;61.83203;95900.58;;;;
2021/11/10 01:25:29;;;;;;;15.8;10.05;;;;;;;-0.56;61.83203;95900.58;;;;
2021/11/10 01:26:30;;;;;;;15.8;10.05;;;;;;;-0.56;61.83203;95900.58;;;;
2021/11/10 01:27:30;;;;;;;15.8;10.05;;;;;;;-0.56;61.83203;95900.58;;;;
2021/11/10 01:28:31;;;;;;;15.8;10.05;;;;;;;-0.56;61.83203;95900.58;;;;
2021/11/10 01:29:32;;;;;;;15.8;10.05;;;;;;;-0.56;61.83203;95900.58;;;;
2021/11/10 01:30:32;;;;;;;15.8;10.3;;;;;;;-0.59;62.04688;95907.98;;;;
2021/11/10 01:31:33;;;;;;;15.8;10.3;;;;;;;-0.59;62.04688;95907.98;;;;
2021/11/10 01:32:34;;;;;;;15.8;10.3;;;;;;;-0.59;62.04688;95907.98;;;;
2021/11/10 01:33:35;;;;;;;15.8;10.3;;;;;;;-0.59;62.04688;95907.98;;;;
2021/11/10 01:34:36;;;;;;;15.8;10.3;;;;;;;-0.59;62.04688;95907.98;;;;
2021/11/10 01:35:37;;;;;;;15.8;10.3;;;;;;;-0.59;62.04688;95907.98;;;;
2021/11/10 01:36:37;;;;;;;15.8;10.3;;;;;;;-0.59;62.04688;95907.98;;;;
2021/11/10 01:37:39;;;;;;;15.8;10.3;;;;;;;-0.59;62.04688;95907.98;;;;
2021/11/10 01:38:39;;;;;;;15.8;10.3;;;;;;;-0.59;62.04688;95907.98;;;;
2021/11/10 01:39:40;;;;;;;15.8;10.3;;;;;;;-0.59;62.04688;95907.98;;;;
2021/11/10 01:40:41;;;;;;;14.35;9.349998;;;;;;;-0.6;62.24414;95908.98;;;;
2021/11/10 01:41:43;;;;;;;14.35;9.349998;;;;;;;-0.6;62.24414;95908.98;;;;
2021/11/10 01:42:46;;;;;;;14.35;9.349998;;;;;;;-0.6;62.24414;95908.98;;;;
2021/11/10 01:43:49;;;;;;;14.35;9.349998;;;;;;;-0.6;62.24414;95908.98;;;;
2021/11/10 01:44:49;;;;;;;14.35;9.349998;;;;;;;-0.6;62.24414;95908.98;;;;
2021/11/10 01:45:50;;;;;;;14.35;9.349998;;;;;;;-0.6;62.24414;95908.98;;;;
2021/11/10 01:46:53;;;;;;;14.35;9.349998;;;;;;;-0.6;62.24414;95908.98;;;;
2021/11/10 01:47:57;;;;;;;14.35;9.349998;;;;;;;-0.6;62.24414;95908.98;;;;
2021/11/10 01:48:57;;;;;;;14.35;9.349998;;;;;;;-0.6;62.24414;95908.98;;;;
2021/11/10 01:49:58;;;;;;;14.35;9.349998;;;;;;;-0.6;62.24414;95908.98;;;;
2021/11/10 01:50:58;;;;;;;16.5;10.2;;;;;;;-0.47;62.28418;95896.17;;;;
2021/11/10 01:51:59;;;;;;;16.5;10.2;;;;;;;-0.47;62.28418;95896.17;;;;
2021/11/10 01:53:01;;;;;;;16.5;10.2;;;;;;;-0.47;62.28418;95896.17;;;;
2021/11/10 01:54:02;;;;;;;16.5;10.2;;;;;;;-0.47;62.28418;95896.17;;;;
2021/11/10 01:55:03;;;;;;;16.5;10.2;;;;;;;-0.47;62.28418;95896.17;;;;
2021/11/10 01:56:05;;;;;;;16.5;10.2;;;;;;;-0.47;62.28418;95896.17;;;;
2021/11/10 01:57:05;;;;;;;16.5;10.2;;;;;;;-0.47;62.28418;95896.17;;;;
2021/11/10 01:58:08;;;;;;;16.5;10.2;;;;;;;-0.47;62.28418;95896.17;;;;
2021/11/10 01:59:09;;;;;;;16.5;10.2;;;;;;;-0.47;62.28418;95896.17;;;;
2021/11/10 02:00:11;;;;;;;16.5;10.2;;;;;;;-0.47;62.28418;95896.17;;;;
2021/11/10 02:01:16;;;;;;;16.5;10.2;;;;;;;-0.47;62.28418;95896.17;;;;
2021/11/10 02:02:20;;;;;;;15.55;10.2;;;;;;;-0.37;62.3291;95885.86;;;;
2021/11/10 02:03:21;;;;;;;15.55;10.2;;;;;;;-0.37;62.3291;95885.86;;;;
2021/11/10 02:04:22;;;;;;;15.55;10.2;;;;;;;-0.37;62.3291;95885.86;;;;
2021/11/10 02:05:23;;;;;;;15.55;10.2;;;;;;;-0.37;62.3291;95885.86;;;;
2021/11/10 02:06:24;;;;;;;15.55;10.2;;;;;;;-0.37;62.3291;95885.86;;;;
2021/11/10 02:07:26;;;;;;;15.55;10.2;;;;;;;-0.37;62.3291;95885.86;;;;
2021/11/10 02:08:27;;;;;;;15.55;10.2;;;;;;;-0.37;62.3291;95885.86;;;;
2021/11/10 02:09:28;;;;;;;15.55;10.2;;;;;;;-0.37;62.3291;95885.86;;;;
2021/11/10 02:10:29;;;;;;;15.55;10.2;;;;;;;-0.37;62.3291;95885.86;;;;
2021/11/10 02:11:29;;;;;;;15.55;10.2;;;;;;;-0.37;62.3291;95885.86;;;;
2021/11/10 02:12:31;;;;;;;16.25;9.9;;;;;;;-0.32;62.46289;95889.72;;;;
2021/11/10 02:13:32;;;;;;;16.25;9.9;;;;;;;-0.32;62.46289;95889.72;;;;
2021/11/10 02:14:33;;;;;;;16.25;9.9;;;;;;;-0.32;62.46289;95889.72;;;;
2021/11/10 02:15:34;;;;;;;16.25;9.9;;;;;;;-0.32;62.46289;95889.72;;;;
2021/11/10 02:16:35;;;;;;;16.25;9.9;;;;;;;-0.32;62.46289;95889.72;;;;
2021/11/10 02:17:37;;;;;;;16.25;9.9;;;;;;;-0.32;62.46289;95889.72;;;;
2021/11/10 02:18:38;;;;;;;16.25;9.9;;;;;;;-0.32;62.46289;95889.72;;;;
2021/11/10 02:19:39;;;;;;;16.25;9.9;;;;;;;-0.32;62.46289;95889.72;;;;
2021/11/10 02:20:40;;;;;;;16.25;9.9;;;;;;;-0.32;62.46289;95889.72;;;;
2021/11/10 02:21:42;;;;;;;16.25;9.9;;;;;;;-0.32;62.46289;95889.72;;;;
2021/11/10 02:22:46;;;;;;;16.25;9.9;;;;;;;-0.32;62.46289;95889.72;;;;
2021/11/10 02:23:47;;;;;;;14.85;10.05;;;;;;;-0.26;62.57813;95890.44;;;;
2021/11/10 02:24:47;;;;;;;14.85;10.05;;;;;;;-0.26;62.57813;95890.44;;;;
2021/11/10 02:25:55;;;;;;;14.85;10.05;;;;;;;-0.26;62.57813;95890.44;;;;
2021/11/10 02:26:56;;;;;;;14.85;10.05;;;;;;;-0.26;62.57813;95890.44;;;;
2021/11/10 02:27:57;;;;;;;14.85;10.05;;;;;;;-0.26;62.57813;95890.44;;;;
2021/11/10 02:28:58;;;;;;;14.85;10.05;;;;;;;-0.26;62.57813;95890.44;;;;
2021/11/10 02:30:00;;;;;;;14.85;10.05;;;;;;;-0.26;62.57813;95890.44;;;;
2021/11/10 02:31:03;;;;;;;14.85;10.05;;;;;;;-0.26;62.57813;95890.44;;;;
2021/11/10 02:32:03;;;;;;;14.85;10.05;;;;;;;-0.26;62.57813;95890.44;;;;
2021/11/10 02:33:09;;;;;;;14.85;10.05;;;;;;;-0.26;62.57813;95890.44;;;;
2021/11/10 02:34:10;;;;;;;14.3;9.849999;;;;;;;-0.23;62.66406;95886.14;;;;
2021/11/10 02:35:12;;;;;;;14.3;9.849999;;;;;;;-0.23;62.66406;95886.14;;;;
2021/11/10 02:36:17;;;;;;;14.3;9.849999;;;;;;;-0.23;62.66406;95886.14;;;;
2021/11/10 02:37:17;;;;;;;14.3;9.849999;;;;;;;-0.23;62.66406;95886.14;;;;
2021/11/10 02:38:20;;;;;;;14.3;9.849999;;;;;;;-0.23;62.66406;95886.14;;;;
2021/11/10 02:39:20;;;;;;;14.3;9.849999;;;;;;;-0.23;62.66406;95886.14;;;;
2021/11/10 02:40:22;;;;;;;14.3;9.849999;;;;;;;-0.23;62.66406;95886.14;;;;
2021/11/10 02:41:24;;;;;;;14.3;9.849999;;;;;;;-0.23;62.66406;95886.14;;;;
2021/11/10 02:42:26;;;;;;;14.3;9.849999;;;;;;;-0.23;62.66406;95886.14;;;;
2021/11/10 02:43:26;;;;;;;14.3;9.849999;;;;;;;-0.23;62.66406;95886.14;;;;
2021/11/10 02:44:28;;;;;;;14.1;8.900002;;;;;;;-0.34;62.8584;95881.08;;;;
2021/11/10 02:45:29;;;;;;;14.1;8.900002;;;;;;;-0.34;62.8584;95881.08;;;;
2021/11/10 02:46:30;;;;;;;14.1;8.900002;;;;;;;-0.34;62.8584;95881.08;;;;
2021/11/10 02:47:31;;;;;;;14.1;8.900002;;;;;;;-0.34;62.8584;95881.08;;;;
2021/11/10 02:48:31;;;;;;;14.1;8.900002;;;;;;;-0.34;62.8584;95881.08;;;;
2021/11/10 02:49:32;;;;;;;14.1;8.900002;;;;;;;-0.34;62.8584;95881.08;;;;
2021/11/10 02:50:33;;;;;;;14.1;8.900002;;;;;;;-0.34;62.8584;95881.08;;;;
2021/11/10 02:51:33;;;;;;;14.1;8.900002;;;;;;;-0.34;62.8584;95881.08;;;;
2021/11/10 02:52:34;;;;;;;14.1;8.900002;;;;;;;-0.34;62.8584;95881.08;;;;
2021/11/10 02:53:35;;;;;;;14.1;8.900002;;;;;;;-0.34;62.8584;95881.08;;;;
2021/11/10 02:54:35;;;;;;;14.1;8.900002;;;;;;;-0.34;62.8584;95881.08;;;;
2021/11/10 02:55:41;;;;;;;13.5;9.299999;;;;;;;-0.37;63.03223;95873.86;;;;
2021/11/10 02:56:41;;;;;;;13.5;9.299999;;;;;;;-0.37;63.03223;95873.86;;;;
2021/11/10 02:57:42;;;;;;;13.5;9.299999;;;;;;;-0.37;63.03223;95873.86;;;;
2021/11/10 02:58:42;;;;;;;13.5;9.299999;;;;;;;-0.37;63.03223;95873.86;;;;
2021/11/10 02:59:44;;;;;;;13.5;9.299999;;;;;;;-0.37;63.03223;95873.86;;;;
2021/11/10 03:00:45;;;;;;;13.5;9.299999;;;;;;;-0.37;63.03223;95873.86;;;;
2021/11/10 03:01:45;;;;;;;13.5;9.299999;;;;;;;-0.37;63.03223;95873.86;;;;
2021/11/10 03:02:46;;;;;;;13.5;9.299999;;;;;;;-0.37;63.03223;95873.86;;;;
2021/11/10 03:03:47;;;;;;;13.5;9.299999;;;;;;;-0.37;63.03223;95873.86;;;;
2021/11/10 03:04:47;;;;;;;13.5;9.299999;;;;;;;-0.37;63.03223;95873.86;;;;
2021/11/10 03:05:48;;;;;;;14.5;9.249998;;;;;;;-0.4;63.09082;95875.09;;;;
2021/11/10 03:06:48;;;;;;;14.5;9.249998;;;;;;;-0.4;63.09082;95875.09;;;;
2021/11/10 03:07:49;;;;;;;14.5;9.249998;;;;;;;-0.4;63.09082;95875.09;;;;
2021/11/10 03:08:50;;;;;;;14.5;9.249998;;;;;;;-0.4;63.09082;95875.09;;;;
2021/11/10 03:09:51;;;;;;;14.5;9.249998;;;;;;;-0.4;63.09082;95875.09;;;;
2021/11/10 03:10:52;;;;;;;14.5;9.249998;;;;;;;-0.4;63.09082;95875.09;;;;
2021/11/10 03:11:53;;;;;;;14.5;9.249998;;;;;;;-0.4;63.09082;95875.09;;;;
2021/11/10 03:12:55;;;;;;;14.5;9.249998;;;;;;;-0.4;63.09082;95875.09;;;;
2021/11/10 03:13:56;;;;;;;14.5;9.249998;;;;;;;-0.4;63.09082;95875.09;;;;
2021/11/10 03:14:56;;;;;;;14.5;9.249998;;;;;;;-0.4;63.09082;95875.09;;;;
2021/11/10 03:15:57;;;;;;;14.5;9.249998;;;;;;;-0.4;63.09082;95875.09;;;;
2021/11/10 03:16:58;;;;;;;13.25;8.9;;;;;;;-0.44;63.20898;95862.28;;;;
2021/11/10 03:17:59;;;;;;;13.25;8.9;;;;;;;-0.44;63.20898;95862.28;;;;
2021/11/10 03:19:00;;;;;;;13.25;8.9;;;;;;;-0.44;63.20898;95862.28;;;;
2021/11/10 03:20:00;;;;;;;13.25;8.9;;;;;;;-0.44;63.20898;95862.28;;;;
2021/11/10 03:21:03;;;;;;;13.25;8.9;;;;;;;-0.44;63.20898;95862.28;;;;
2021/11/10 03:22:04;;;;;;;13.25;8.9;;;;;;;-0.44;63.20898;95862.28;;;;
2021/11/10 03:23:07;;;;;;;13.25;8.9;;;;;;;-0.44;63.20898;95862.28;;;;
2021/11/10 03:24:07;;;;;;;13.25;8.9;;;;;;;-0.44;63.20898;95862.28;;;;
2021/11/10 03:25:08;;;;;;;13.25;8.9;;;;;;;-0.44;63.20898;95862.28;;;;
2021/11/10 03:26:09;;;;;;;13.25;8.9;;;;;;;-0.44;63.20898;95862.28;;;;
2021/11/10 03:27:10;;;;;;;12.65;8.799998;;;;;;;-0.46;63.38379;95848.33;;;;
2021/11/10 03:28:11;;;;;;;12.65;8.799998;;;;;;;-0.46;63.38379;95848.33;;;;
2021/11/10 03:29:11;;;;;;;12.65;8.799998;;;;;;;-0.46;63.38379;95848.33;;;;
2021/11/10 03:30:12;;;;;;;12.65;8.799998;;;;;;;-0.46;63.38379;95848.33;;;;
2021/11/10 03:31:13;;;;;;;12.65;8.799998;;;;;;;-0.46;63.38379;95848.33;;;;
2021/11/10 03:32:14;;;;;;;12.65;8.799998;;;;;;;-0.46;63.38379;95848.33;;;;
2021/11/10 03:33:14;;;;;;;12.65;8.799998;;;;;;;-0.46;63.38379;95848.33;;;;
2021/11/10 03:34:15;;;;;;;12.65;8.799998;;;;;;;-0.46;63.38379;95848.33;;;;
2021/11/10 03:35:16;;;;;;;12.65;8.799998;;;;;;;-0.46;63.38379;95848.33;;;;
2021/11/10 03:36:17;;;;;;;12.65;8.799998;;;;;;;-0.46;63.38379;95848.33;;;;
2021/11/10 03:37:17;;;;;;;12.65;8.799998;;;;;;;-0.46;63.38379;95848.33;;;;
2021/11/10 03:38:18;;;;;;;14.7;9.7;;;;;;;-0.56;63.54688;95839.17;;;;
2021/11/10 03:39:18;;;;;;;14.7;9.7;;;;;;;-0.56;63.54688;95839.17;;;;
2021/11/10 03:40:19;;;;;;;14.7;9.7;;;;;;;-0.56;63.54688;95839.17;;;;
2021/11/10 03:41:20;;;;;;;14.7;9.7;;;;;;;-0.56;63.54688;95839.17;;;;
2021/11/10 03:42:21;;;;;;;14.7;9.7;;;;;;;-0.56;63.54688;95839.17;;;;
2021/11/10 03:43:21;;;;;;;14.7;9.7;;;;;;;-0.56;63.54688;95839.17;;;;
2021/11/10 03:44:22;;;;;;;14.7;9.7;;;;;;;-0.56;63.54688;95839.17;;;;
2021/11/10 03:45:23;;;;;;;14.7;9.7;;;;;;;-0.56;63.54688;95839.17;;;;
2021/11/10 03:46:23;;;;;;;14.7;9.7;;;;;;;-0.56;63.54688;95839.17;;;;
2021/11/10 03:47:25;;;;;;;14.7;9.7;;;;;;;-0.56;63.54688;95839.17;;;;
2021/11/10 03:48:26;;;;;;;17.05;10.4;;;;;;;-0.61;63.74902;95841.42;;;;
2021/11/10 03:49:27;;;;;;;17.05;10.4;;;;;;;-0.61;63.74902;95841.42;;;;
2021/11/10 03:50:28;;;;;;;17.05;10.4;;;;;;;-0.61;63.74902;95841.42;;;;
2021/11/10 03:51:28;;;;;;;17.05;10.4;;;;;;;-0.61;63.74902;95841.42;;;;
2021/11/10 03:52:29;;;;;;;17.05;10.4;;;;;;;-0.61;63.74902;95841.42;;;;
2021/11/10 03:53:30;;;;;;;17.05;10.4;;;;;;;-0.61;63.74902;95841.42;;;;
2021/11/10 03:54:30;;;;;;;17.05;10.4;;;;;;;-0.61;63.74902;95841.42;;;;
2021/11/10 03:55:35;;;;;;;17.05;10.4;;;;;;;-0.61;63.74902;95841.42;;;;
2021/11/10 03:56:35;;;;;;;17.05;10.4;;;;;;;-0.61;63.74902;95841.42;;;;
2021/11/10 03:57:36;;;;;;;17.05;10.4;;;;;;;-0.61;63.74902;95841.42;;;;
2021/11/10 03:58:37;;;;;;;17.05;10.4;;;;;;;-0.61;63.74902;95841.42;;;;
2021/11/10 03:59:38;;;;;;;17.05;10.4;;;;;;;-0.61;63.74902;95841.42;;;;
2021/11/10 04:00:39;;;;;;;17.05;10.4;;;;;;;-0.61;63.74902;95841.42;;;;
2021/11/10 04:01:40;;;;;;;17.05;10.4;;;;;;;-0.61;63.74902;95841.42;;;;
2021/11/10 04:02:41;;;;;;;17.05;10.4;;;;;;;-0.61;63.74902;95841.42;;;;
2021/11/10 04:03:42;;;;;;;17.05;10.4;;;;;;;-0.61;63.74902;95841.42;;;;
2021/11/10 04:04:43;;;;;;;17.05;10.4;;;;;;;-0.61;63.74902;95841.42;;;;
2021/11/10 04:05:43;;;;;;;17.05;10.4;;;;;;;-0.61;63.74902;95841.42;;;;
2021/11/10 04:06:44;;;;;;;17.05;10.4;;;;;;;-0.61;63.74902;95841.42;;;;
2021/11/10 04:07:45;;;;;;;17.05;10.4;;;;;;;-0.61;63.74902;95841.42;;;;
2021/11/10 04:08:46;;;;;;;17.05;10.4;;;;;;;-0.61;63.74902;95841.42;;;;
2021/11/10 04:09:46;;;;;;;17.2;10.6;;;;;;;-0.67;64.0332;95841.16;;;;
2021/11/10 04:10:47;;;;;;;17.2;10.6;;;;;;;-0.67;64.0332;95841.16;;;;
2021/11/10 04:11:49;;;;;;;17.2;10.6;;;;;;;-0.67;64.0332;95841.16;;;;
2021/11/10 04:12:50;;;;;;;17.2;10.6;;;;;;;-0.67;64.0332;95841.16;;;;
2021/11/10 04:13:50;;;;;;;17.2;10.6;;;;;;;-0.67;64.0332;95841.16;;;;
2021/11/10 04:14:52;;;;;;;17.2;10.6;;;;;;;-0.67;64.0332;95841.16;;;;
2021/11/10 04:15:53;;;;;;;17.2;10.6;;;;;;;-0.67;64.0332;95841.16;;;;
2021/11/10 04:16:54;;;;;;;17.2;10.6;;;;;;;-0.67;64.0332;95841.16;;;;
2021/11/10 04:17:54;;;;;;;17.2;10.6;;;;;;;-0.67;64.0332;95841.16;;;;
2021/11/10 04:18:55;;;;;;;17.2;10.6;;;;;;;-0.67;64.0332;95841.16;;;;
2021/11/10 04:19:56;;;;;;;17.2;10.6;;;;;;;-0.67;64.0332;95841.16;;;;
2021/11/10 04:20:57;;;;;;;16.05;10.15;;;;;;;-0.71;64.16309;95849.98;;;;
2021/11/10 04:21:57;;;;;;;16.05;10.15;;;;;;;-0.71;64.16309;95849.98;;;;
2021/11/10 04:22:58;;;;;;;16.05;10.15;;;;;;;-0.71;64.16309;95849.98;;;;
2021/11/10 04:23:59;;;;;;;16.05;10.15;;;;;;;-0.71;64.16309;95849.98;;;;
2021/11/10 04:25:00;;;;;;;16.05;10.15;;;;;;;-0.71;64.16309;95849.98;;;;
2021/11/10 04:26:03;;;;;;;16.05;10.15;;;;;;;-0.71;64.16309;95849.98;;;;
2021/11/10 04:27:04;;;;;;;16.05;10.15;;;;;;;-0.71;64.16309;95849.98;;;;
2021/11/10 04:28:05;;;;;;;16.05;10.15;;;;;;;-0.71;64.16309;95849.98;;;;
2021/11/10 04:29:07;;;;;;;16.05;10.15;;;;;;;-0.71;64.16309;95849.98;;;;
2021/11/10 04:30:08;;;;;;;16.05;10.15;;;;;;;-0.71;64.16309;95849.98;;;;
2021/11/10 04:31:10;;;;;;;14.75;9.7;;;;;;;-0.76;64.26953;95853.16;;;;
2021/11/10 04:32:10;;;;;;;14.75;9.7;;;;;;;-0.76;64.26953;95853.16;;;;
2021/11/10 04:33:11;;;;;;;14.75;9.7;;;;;;;-0.76;64.26953;95853.16;;;;
2021/11/10 04:34:11;;;;;;;14.75;9.7;;;;;;;-0.76;64.26953;95853.16;;;;
2021/11/10 04:35:12;;;;;;;14.75;9.7;;;;;;;-0.76;64.26953;95853.16;;;;
2021/11/10 04:36:14;;;;;;;14.75;9.7;;;;;;;-0.76;64.26953;95853.16;;;;
2021/11/10 04:37:16;;;;;;;14.75;9.7;;;;;;;-0.76;64.26953;95853.16;;;;
2021/11/10 04:38:16;;;;;;;14.75;9.7;;;;;;;-0.76;64.26953;95853.16;;;;
2021/11/10 04:39:17;;;;;;;14.75;9.7;;;;;;;-0.76;64.26953;95853.16;;;;
2021/11/10 04:40:18;;;;;;;14.75;9.7;;;;;;;-0.76;64.26953;95853.16;;;;
2021/11/10 04:41:19;;;;;;;14.75;9.7;;;;;;;-0.76;64.26953;95853.16;;;;
2021/11/10 04:42:19;;;;;;;22.85;11.5;;;;;;;-0.78;64.44434;95854.24;;;;
2021/11/10 04:43:20;;;;;;;22.85;11.5;;;;;;;-0.78;64.44434;95854.24;;;;
2021/11/10 04:44:20;;;;;;;22.85;11.5;;;;;;;-0.78;64.44434;95854.24;;;;
2021/11/10 04:45:26;;;;;;;22.85;11.5;;;;;;;-0.78;64.44434;95854.24;;;;
2021/11/10 04:46:30;;;;;;;22.85;11.5;;;;;;;-0.78;64.44434;95854.24;;;;
2021/11/10 04:47:31;;;;;;;22.85;11.5;;;;;;;-0.78;64.44434;95854.24;;;;
2021/11/10 04:48:33;;;;;;;22.85;11.5;;;;;;;-0.78;64.44434;95854.24;;;;
2021/11/10 04:49:34;;;;;;;22.85;11.5;;;;;;;-0.78;64.44434;95854.24;;;;
2021/11/10 04:50:35;;;;;;;22.85;11.5;;;;;;;-0.78;64.44434;95854.24;;;;
2021/11/10 04:51:36;;;;;;;22.85;11.5;;;;;;;-0.78;64.44434;95854.24;;;;
2021/11/10 04:52:37;;;;;;;16.35;10;;;;;;;-0.67;64.48242;95862.85;;;;
2021/11/10 04:53:39;;;;;;;16.35;10;;;;;;;-0.67;64.48242;95862.85;;;;
2021/11/10 04:54:41;;;;;;;16.35;10;;;;;;;-0.67;64.48242;95862.85;;;;
2021/11/10 04:55:41;;;;;;;16.35;10;;;;;;;-0.67;64.48242;95862.85;;;;
2021/11/10 04:56:42;;;;;;;16.35;10;;;;;;;-0.67;64.48242;95862.85;;;;
2021/11/10 04:57:43;;;;;;;16.35;10;;;;;;;-0.67;64.48242;95862.85;;;;
2021/11/10 04:58:44;;;;;;;16.35;10;;;;;;;-0.67;64.48242;95862.85;;;;
2021/11/10 04:59:44;;;;;;;16.35;10;;;;;;;-0.67;64.48242;95862.85;;;;
2021/11/10 05:00:46;;;;;;;16.35;10;;;;;;;-0.67;64.48242;95862.85;;;;
2021/11/10 05:02:02;;;;;;;16.35;10;;;;;;;-0.67;64.48242;95862.85;;;;
2021/11/10 05:03:03;;;;;;;17.95;10.3;;;;;;;-0.67;64.51367;95852.19;;;;
2021/11/10 05:04:04;;;;;;;17.95;10.3;;;;;;;-0.67;64.51367;95852.19;;;;
2021/11/10 05:05:05;;;;;;;17.95;10.3;;;;;;;-0.67;64.51367;95852.19;;;;
2021/11/10 05:06:06;;;;;;;17.95;10.3;;;;;;;-0.67;64.51367;95852.19;;;;
2021/11/10 05:07:08;;;;;;;17.95;10.3;;;;;;;-0.67;64.51367;95852.19;;;;
2021/11/10 05:08:11;;;;;;;17.95;10.3;;;;;;;-0.67;64.51367;95852.19;;;;
2021/11/10 05:09:12;;;;;;;17.95;10.3;;;;;;;-0.67;64.51367;95852.19;;;;
2021/11/10 05:10:12;;;;;;;17.95;10.3;;;;;;;-0.67;64.51367;95852.19;;;;
2021/11/10 05:11:13;;;;;;;17.95;10.3;;;;;;;-0.67;64.51367;95852.19;;;;
2021/11/10 05:12:14;;;;;;;17.95;10.3;;;;;;;-0.67;64.51367;95852.19;;;;
2021/11/10 05:13:15;;;;;;;17.95;10.3;;;;;;;-0.67;64.51367;95852.19;;;;
2021/11/10 05:14:15;;;;;;;17.1;10.65;;;;;;;-0.71;64.6543;95845.51;;;;
2021/11/10 05:15:16;;;;;;;17.1;10.65;;;;;;;-0.71;64.6543;95845.51;;;;
2021/11/10 05:16:17;;;;;;;17.1;10.65;;;;;;;-0.71;64.6543;95845.51;;;;
2021/11/10 05:17:18;;;;;;;17.1;10.65;;;;;;;-0.71;64.6543;95845.51;;;;
2021/11/10 05:18:19;;;;;;;17.1;10.65;;;;;;;-0.71;64.6543;95845.51;;;;
2021/11/10 05:19:19;;;;;;;17.1;10.65;;;;;;;-0.71;64.6543;95845.51;;;;
2021/11/10 05:20:20;;;;;;;17.1;10.65;;;;;;;-0.71;64.6543;95845.51;;;;
2021/11/10 05:21:20;;;;;;;17.1;10.65;;;;;;;-0.71;64.6543;95845.51;;;;
2021/11/10 05:22:21;;;;;;;17.1;10.65;;;;;;;-0.71;64.6543;95845.51;;;;
2021/11/10 05:23:22;;;;;;;17.1;10.65;;;;;;;-0.71;64.6543;95845.51;;;;
2021/11/10 05:24:25;;;;;;;17.1;10.65;;;;;;;-0.71;64.6543;95845.51;;;;
2021/11/10 05:25:26;;;;;;;17.95;10.2;;;;;;;-0.72;64.86035;95860.26;;;;
2021/11/10 05:26:27;;;;;;;17.95;10.2;;;;;;;-0.72;64.86035;95860.26;;;;
2021/11/10 05:27:27;;;;;;;17.95;10.2;;;;;;;-0.72;64.86035;95860.26;;;;
2021/11/10 05:28:28;;;;;;;17.95;10.2;;;;;;;-0.72;64.86035;95860.26;;;;
2021/11/10 05:29:28;;;;;;;17.95;10.2;;;;;;;-0.72;64.86035;95860.26;;;;
2021/11/10 05:30:29;;;;;;;17.95;10.2;;;;;;;-0.72;64.86035;95860.26;;;;
2021/11/10 05:31:29;;;;;;;17.95;10.2;;;;;;;-0.72;64.86035;95860.26;;;;
2021/11/10 05:32:30;;;;;;;17.95;10.2;;;;;;;-0.72;64.86035;95860.26;;;;
2021/11/10 05:33:31;;;;;;;17.95;10.2;;;;;;;-0.72;64.86035;95860.26;;;;
2021/11/10 05:34:31;;;;;;;17.95;10.2;;;;;;;-0.72;64.86035;95860.26;;;;
2021/11/10 05:35:32;;;;;;;17.95;10.2;;;;;;;-0.72;64.86035;95860.26;;;;
2021/11/10 05:36:32;;;;;;;17.95;10.2;;;;;;;-0.72;64.86035;95860.26;;;;
2021/11/10 05:37:33;;;;;;;17.95;10.2;;;;;;;-0.72;64.86035;95860.26;;;;
2021/11/10 05:38:34;;;;;;;17.95;10.2;;;;;;;-0.72;64.86035;95860.26;;;;
2021/11/10 05:39:34;;;;;;;17.95;10.2;;;;;;;-0.72;64.86035;95860.26;;;;